sensor_id;sensor_type;location;lat;lon;timestamp;P1;durP1;ratioP1;P2;durP2;ratioP2
3054;SDS011;1537;52.018;8.542;2023-07-09T00:02:20;12.30;;;8.93;;
3054;SDS011;1537;52.018;8.542;2023-07-09T00:05:45;12.47;;;9.57;;
3054;SDS011;1537;52.018;8.542;2023-07-09T00:09:12;17.27;;;10.30;;
3054;SDS011;1537;52.018;8.542;2023-07-09T00:12:38;12.13;;;9.13;;
3054;SDS011;1537;52.018;8.542;2023-07-09T00:16:03;13.80;;;10.80;;
3054;SDS011;1537;52.018;8.542;2023-07-09T00:19:36;12.33;;;9.47;;
3054;SDS011;1537;52.018;8.542;2023-07-09T00:23:07;15.00;;;9.13;;
3054;SDS011;1537;52.018;8.542;2023-07-09T00:26:36;12.03;;;8.83;;
3054;SDS011;1537;52.018;8.542;2023-07-09T00:30:03;13.60;;;9.97;;
3054;SDS011;1537;52.018;8.542;2023-07-09T00:33:28;12.20;;;9.50;;
3054;SDS011;1537;52.018;8.542;2023-07-09T00:36:55;10.40;;;8.70;;
3054;SDS011;1537;52.018;8.542;2023-07-09T00:40:20;13.27;;;9.90;;
3054;SDS011;1537;52.018;8.542;2023-07-09T00:43:48;14.20;;;10.70;;
3054;SDS011;1537;52.018;8.542;2023-07-09T00:51:15;12.07;;;10.20;;
3054;SDS011;1537;52.018;8.542;2023-07-09T00:54:45;12.10;;;9.90;;
3054;SDS011;1537;52.018;8.542;2023-07-09T00:58:10;11.90;;;9.70;;
3054;SDS011;1537;52.018;8.542;2023-07-09T01:01:39;12.33;;;8.83;;
3054;SDS011;1537;52.018;8.542;2023-07-09T01:05:03;13.97;;;10.00;;
3054;SDS011;1537;52.018;8.542;2023-07-09T01:08:28;14.50;;;10.70;;
3054;SDS011;1537;52.018;8.542;2023-07-09T01:11:56;13.20;;;10.50;;
3054;SDS011;1537;52.018;8.542;2023-07-09T01:15:23;18.77;;;10.60;;
3054;SDS011;1537;52.018;8.542;2023-07-09T01:18:47;13.20;;;10.97;;
3054;SDS011;1537;52.018;8.542;2023-07-09T01:22:13;12.60;;;11.27;;
3054;SDS011;1537;52.018;8.542;2023-07-09T01:25:42;15.63;;;11.33;;
3054;SDS011;1537;52.018;8.542;2023-07-09T01:29:14;15.20;;;12.20;;
3054;SDS011;1537;52.018;8.542;2023-07-09T01:32:39;13.77;;;11.13;;
3054;SDS011;1537;52.018;8.542;2023-07-09T01:36:07;13.13;;;11.80;;
3054;SDS011;1537;52.018;8.542;2023-07-09T01:39:33;14.40;;;11.70;;
3054;SDS011;1537;52.018;8.542;2023-07-09T01:42:58;13.37;;;10.97;;
3054;SDS011;1537;52.018;8.542;2023-07-09T01:46:23;13.10;;;11.40;;
3054;SDS011;1537;52.018;8.542;2023-07-09T01:49:47;12.67;;;10.97;;
3054;SDS011;1537;52.018;8.542;2023-07-09T01:53:11;13.03;;;10.63;;
3054;SDS011;1537;52.018;8.542;2023-07-09T01:56:37;13.70;;;10.40;;
3054;SDS011;1537;52.018;8.542;2023-07-09T02:00:02;15.27;;;11.03;;
3054;SDS011;1537;52.018;8.542;2023-07-09T02:03:34;13.93;;;11.43;;
3054;SDS011;1537;52.018;8.542;2023-07-09T02:06:58;14.10;;;11.13;;
3054;SDS011;1537;52.018;8.542;2023-07-09T02:10:22;12.57;;;10.43;;
3054;SDS011;1537;52.018;8.542;2023-07-09T02:13:50;14.40;;;11.20;;
3054;SDS011;1537;52.018;8.542;2023-07-09T02:17:14;11.53;;;9.40;;
3054;SDS011;1537;52.018;8.542;2023-07-09T02:20:40;12.97;;;10.13;;
3054;SDS011;1537;52.018;8.542;2023-07-09T02:24:04;12.67;;;10.73;;
3054;SDS011;1537;52.018;8.542;2023-07-09T02:27:29;12.40;;;9.17;;
3054;SDS011;1537;52.018;8.542;2023-07-09T02:30:54;18.00;;;11.10;;
3054;SDS011;1537;52.018;8.542;2023-07-09T02:34:18;14.03;;;9.13;;
3054;SDS011;1537;52.018;8.542;2023-07-09T02:37:43;12.23;;;10.10;;
3054;SDS011;1537;52.018;8.542;2023-07-09T02:41:07;12.47;;;10.20;;
3054;SDS011;1537;52.018;8.542;2023-07-09T02:44:31;14.03;;;10.27;;
3054;SDS011;1537;52.018;8.542;2023-07-09T02:47:57;14.60;;;10.20;;
3054;SDS011;1537;52.018;8.542;2023-07-09T02:51:24;15.00;;;11.40;;
3054;SDS011;1537;52.018;8.542;2023-07-09T02:54:49;13.27;;;9.93;;
3054;SDS011;1537;52.018;8.542;2023-07-09T02:58:13;13.70;;;11.47;;
3054;SDS011;1537;52.018;8.542;2023-07-09T03:01:37;23.63;;;13.67;;
3054;SDS011;1537;52.018;8.542;2023-07-09T03:05:04;14.70;;;10.40;;
3054;SDS011;1537;52.018;8.542;2023-07-09T03:08:28;14.17;;;10.73;;
3054;SDS011;1537;52.018;8.542;2023-07-09T03:11:52;15.83;;;10.60;;
3054;SDS011;1537;52.018;8.542;2023-07-09T03:15:16;13.70;;;10.80;;
3054;SDS011;1537;52.018;8.542;2023-07-09T03:18:40;15.00;;;11.10;;
3054;SDS011;1537;52.018;8.542;2023-07-09T03:22:05;14.00;;;10.07;;
3054;SDS011;1537;52.018;8.542;2023-07-09T03:25:30;13.57;;;9.77;;
3054;SDS011;1537;52.018;8.542;2023-07-09T03:28:54;12.23;;;9.80;;
3054;SDS011;1537;52.018;8.542;2023-07-09T03:32:18;11.07;;;9.70;;
3054;SDS011;1537;52.018;8.542;2023-07-09T03:35:45;13.13;;;10.33;;
3054;SDS011;1537;52.018;8.542;2023-07-09T03:39:13;12.63;;;10.10;;
3054;SDS011;1537;52.018;8.542;2023-07-09T03:42:38;15.10;;;10.93;;
3054;SDS011;1537;52.018;8.542;2023-07-09T03:46:02;11.30;;;9.53;;
3054;SDS011;1537;52.018;8.542;2023-07-09T03:49:26;12.80;;;9.70;;
3054;SDS011;1537;52.018;8.542;2023-07-09T03:52:51;12.73;;;10.27;;
3054;SDS011;1537;52.018;8.542;2023-07-09T03:56:16;11.43;;;10.20;;
3054;SDS011;1537;52.018;8.542;2023-07-09T03:59:40;11.50;;;10.30;;
3054;SDS011;1537;52.018;8.542;2023-07-09T04:03:04;12.53;;;10.00;;
3054;SDS011;1537;52.018;8.542;2023-07-09T04:06:31;11.90;;;9.50;;
3054;SDS011;1537;52.018;8.542;2023-07-09T04:09:55;11.90;;;10.10;;
3054;SDS011;1537;52.018;8.542;2023-07-09T04:13:20;15.20;;;9.77;;
3054;SDS011;1537;52.018;8.542;2023-07-09T04:16:45;12.90;;;10.30;;
3054;SDS011;1537;52.018;8.542;2023-07-09T04:20:09;11.03;;;9.60;;
3054;SDS011;1537;52.018;8.542;2023-07-09T04:23:35;14.37;;;9.77;;
3054;SDS011;1537;52.018;8.542;2023-07-09T04:26:59;13.40;;;10.43;;
3054;SDS011;1537;52.018;8.542;2023-07-09T04:30:26;12.07;;;10.50;;
3054;SDS011;1537;52.018;8.542;2023-07-09T04:33:51;13.43;;;10.03;;
3054;SDS011;1537;52.018;8.542;2023-07-09T04:37:17;16.07;;;11.90;;
3054;SDS011;1537;52.018;8.542;2023-07-09T04:40:41;13.60;;;10.23;;
3054;SDS011;1537;52.018;8.542;2023-07-09T04:44:05;12.27;;;9.97;;
3054;SDS011;1537;52.018;8.542;2023-07-09T04:47:30;11.57;;;9.90;;
3054;SDS011;1537;52.018;8.542;2023-07-09T04:50:55;13.70;;;9.77;;
3054;SDS011;1537;52.018;8.542;2023-07-09T04:54:19;10.73;;;9.20;;
3054;SDS011;1537;52.018;8.542;2023-07-09T04:57:44;11.50;;;9.60;;
3054;SDS011;1537;52.018;8.542;2023-07-09T05:01:08;12.07;;;9.97;;
3054;SDS011;1537;52.018;8.542;2023-07-09T05:04:34;11.90;;;9.93;;
3054;SDS011;1537;52.018;8.542;2023-07-09T05:07:58;11.73;;;9.30;;
3054;SDS011;1537;52.018;8.542;2023-07-09T05:11:22;12.33;;;9.50;;
3054;SDS011;1537;52.018;8.542;2023-07-09T05:14:46;10.97;;;9.83;;
3054;SDS011;1537;52.018;8.542;2023-07-09T05:18:11;12.93;;;9.87;;
3054;SDS011;1537;52.018;8.542;2023-07-09T05:21:37;14.53;;;9.80;;
3054;SDS011;1537;52.018;8.542;2023-07-09T05:25:01;11.57;;;9.20;;
3054;SDS011;1537;52.018;8.542;2023-07-09T05:28:27;12.13;;;9.67;;
3054;SDS011;1537;52.018;8.542;2023-07-09T05:31:51;10.70;;;8.97;;
3054;SDS011;1537;52.018;8.542;2023-07-09T05:35:17;13.57;;;9.73;;
3054;SDS011;1537;52.018;8.542;2023-07-09T05:38:43;11.00;;;9.80;;
3054;SDS011;1537;52.018;8.542;2023-07-09T05:42:08;11.07;;;9.50;;
3054;SDS011;1537;52.018;8.542;2023-07-09T05:45:32;12.60;;;9.70;;
3054;SDS011;1537;52.018;8.542;2023-07-09T05:48:56;14.27;;;8.90;;
3054;SDS011;1537;52.018;8.542;2023-07-09T05:52:23;11.63;;;10.00;;
3054;SDS011;1537;52.018;8.542;2023-07-09T05:55:48;11.20;;;9.10;;
3054;SDS011;1537;52.018;8.542;2023-07-09T05:59:12;12.73;;;8.87;;
3054;SDS011;1537;52.018;8.542;2023-07-09T06:02:36;13.03;;;8.73;;
3054;SDS011;1537;52.018;8.542;2023-07-09T06:06:01;10.67;;;8.40;;
3054;SDS011;1537;52.018;8.542;2023-07-09T06:09:25;11.40;;;10.07;;
3054;SDS011;1537;52.018;8.542;2023-07-09T06:12:51;10.43;;;9.23;;
3054;SDS011;1537;52.018;8.542;2023-07-09T06:16:14;11.37;;;9.20;;
3054;SDS011;1537;52.018;8.542;2023-07-09T06:19:39;10.67;;;8.97;;
3054;SDS011;1537;52.018;8.542;2023-07-09T06:23:03;12.03;;;9.10;;
3054;SDS011;1537;52.018;8.542;2023-07-09T06:26:27;12.93;;;8.80;;
3054;SDS011;1537;52.018;8.542;2023-07-09T06:29:52;11.40;;;9.53;;
3054;SDS011;1537;52.018;8.542;2023-07-09T06:33:17;10.90;;;8.57;;
3054;SDS011;1537;52.018;8.542;2023-07-09T06:36:41;9.33;;;8.33;;
3054;SDS011;1537;52.018;8.542;2023-07-09T06:40:06;9.63;;;8.20;;
3054;SDS011;1537;52.018;8.542;2023-07-09T06:43:31;9.27;;;8.30;;
3054;SDS011;1537;52.018;8.542;2023-07-09T06:46:57;10.37;;;8.80;;
3054;SDS011;1537;52.018;8.542;2023-07-09T06:50:21;11.73;;;9.00;;
3054;SDS011;1537;52.018;8.542;2023-07-09T06:53:45;10.80;;;8.30;;
3054;SDS011;1537;52.018;8.542;2023-07-09T06:57:13;10.60;;;9.50;;
3054;SDS011;1537;52.018;8.542;2023-07-09T07:00:37;11.17;;;8.33;;
3054;SDS011;1537;52.018;8.542;2023-07-09T07:04:04;10.90;;;8.87;;
3054;SDS011;1537;52.018;8.542;2023-07-09T07:07:28;8.67;;;7.03;;
3054;SDS011;1537;52.018;8.542;2023-07-09T07:10:54;10.10;;;8.20;;
3054;SDS011;1537;52.018;8.542;2023-07-09T07:14:23;11.90;;;8.53;;
3054;SDS011;1537;52.018;8.542;2023-07-09T07:17:47;10.60;;;8.50;;
3054;SDS011;1537;52.018;8.542;2023-07-09T07:21:12;10.50;;;8.70;;
3054;SDS011;1537;52.018;8.542;2023-07-09T07:24:36;9.50;;;8.30;;
3054;SDS011;1537;52.018;8.542;2023-07-09T07:28:00;14.07;;;9.77;;
3054;SDS011;1537;52.018;8.542;2023-07-09T07:31:24;11.50;;;8.13;;
3054;SDS011;1537;52.018;8.542;2023-07-09T07:34:47;10.43;;;8.73;;
3054;SDS011;1537;52.018;8.542;2023-07-09T07:38:12;12.87;;;9.43;;
3054;SDS011;1537;52.018;8.542;2023-07-09T07:41:37;12.77;;;9.27;;
3054;SDS011;1537;52.018;8.542;2023-07-09T07:45:00;9.57;;;8.40;;
3054;SDS011;1537;52.018;8.542;2023-07-09T07:48:25;9.90;;;8.90;;
3054;SDS011;1537;52.018;8.542;2023-07-09T07:51:49;11.20;;;9.10;;
3054;SDS011;1537;52.018;8.542;2023-07-09T07:55:14;9.47;;;8.57;;
3054;SDS011;1537;52.018;8.542;2023-07-09T07:58:41;10.27;;;9.17;;
3054;SDS011;1537;52.018;8.542;2023-07-09T08:02:06;10.37;;;9.13;;
3054;SDS011;1537;52.018;8.542;2023-07-09T08:05:33;11.20;;;8.80;;
3054;SDS011;1537;52.018;8.542;2023-07-09T08:08:57;10.83;;;9.37;;
3054;SDS011;1537;52.018;8.542;2023-07-09T08:12:22;10.50;;;8.63;;
3054;SDS011;1537;52.018;8.542;2023-07-09T08:15:46;9.63;;;8.00;;
3054;SDS011;1537;52.018;8.542;2023-07-09T08:19:11;9.60;;;7.97;;
3054;SDS011;1537;52.018;8.542;2023-07-09T08:22:34;13.13;;;9.20;;
3054;SDS011;1537;52.018;8.542;2023-07-09T08:26:02;9.10;;;7.73;;
3054;SDS011;1537;52.018;8.542;2023-07-09T08:29:28;11.37;;;8.23;;
3054;SDS011;1537;52.018;8.542;2023-07-09T08:32:54;9.73;;;8.10;;
3054;SDS011;1537;52.018;8.542;2023-07-09T08:36:19;10.20;;;8.30;;
3054;SDS011;1537;52.018;8.542;2023-07-09T08:39:43;9.93;;;7.53;;
3054;SDS011;1537;52.018;8.542;2023-07-09T08:43:10;10.47;;;7.67;;
3054;SDS011;1537;52.018;8.542;2023-07-09T08:46:45;9.70;;;7.87;;
3054;SDS011;1537;52.018;8.542;2023-07-09T08:50:18;13.40;;;7.70;;
3054;SDS011;1537;52.018;8.542;2023-07-09T08:53:45;9.13;;;7.47;;
3054;SDS011;1537;52.018;8.542;2023-07-09T08:57:15;11.30;;;7.77;;
3054;SDS011;1537;52.018;8.542;2023-07-09T09:00:44;8.77;;;7.33;;
3054;SDS011;1537;52.018;8.542;2023-07-09T09:04:18;9.47;;;7.57;;
3054;SDS011;1537;52.018;8.542;2023-07-09T09:07:45;11.20;;;7.40;;
3054;SDS011;1537;52.018;8.542;2023-07-09T09:11:18;12.40;;;8.67;;
3054;SDS011;1537;52.018;8.542;2023-07-09T09:14:56;13.83;;;8.23;;
3054;SDS011;1537;52.018;8.542;2023-07-09T09:18:21;8.27;;;6.80;;
3054;SDS011;1537;52.018;8.542;2023-07-09T09:21:49;8.80;;;6.60;;
3054;SDS011;1537;52.018;8.542;2023-07-09T09:25:20;14.33;;;7.30;;
3054;SDS011;1537;52.018;8.542;2023-07-09T09:28:48;8.07;;;7.10;;
3054;SDS011;1537;52.018;8.542;2023-07-09T09:32:17;9.87;;;7.53;;
3054;SDS011;1537;52.018;8.542;2023-07-09T09:35:45;9.23;;;7.33;;
3054;SDS011;1537;52.018;8.542;2023-07-09T09:39:12;8.80;;;7.07;;
3054;SDS011;1537;52.018;8.542;2023-07-09T09:42:35;11.40;;;7.47;;
3054;SDS011;1537;52.018;8.542;2023-07-09T09:45:59;9.73;;;7.07;;
3054;SDS011;1537;52.018;8.542;2023-07-09T09:49:29;13.97;;;8.03;;
3054;SDS011;1537;52.018;8.542;2023-07-09T09:52:52;9.93;;;7.50;;
3054;SDS011;1537;52.018;8.542;2023-07-09T09:56:19;8.70;;;7.63;;
3054;SDS011;1537;52.018;8.542;2023-07-09T09:59:47;9.13;;;7.50;;
3054;SDS011;1537;52.018;8.542;2023-07-09T10:03:12;9.30;;;7.10;;
3054;SDS011;1537;52.018;8.542;2023-07-09T10:06:36;9.37;;;8.10;;
3054;SDS011;1537;52.018;8.542;2023-07-09T10:10:04;8.40;;;7.23;;
3054;SDS011;1537;52.018;8.542;2023-07-09T10:13:37;10.43;;;7.27;;
3054;SDS011;1537;52.018;8.542;2023-07-09T10:17:11;10.40;;;7.63;;
3054;SDS011;1537;52.018;8.542;2023-07-09T10:20:43;13.30;;;8.33;;
3054;SDS011;1537;52.018;8.542;2023-07-09T10:24:13;12.40;;;7.60;;
3054;SDS011;1537;52.018;8.542;2023-07-09T10:27:57;11.80;;;7.87;;
3054;SDS011;1537;52.018;8.542;2023-07-09T10:31:33;10.40;;;8.07;;
3054;SDS011;1537;52.018;8.542;2023-07-09T10:35:04;11.73;;;7.00;;
3054;SDS011;1537;52.018;8.542;2023-07-09T10:38:36;10.07;;;6.80;;
3054;SDS011;1537;52.018;8.542;2023-07-09T10:42:11;11.33;;;7.90;;
3054;SDS011;1537;52.018;8.542;2023-07-09T10:45:46;12.10;;;7.27;;
3054;SDS011;1537;52.018;8.542;2023-07-09T10:49:13;10.53;;;7.80;;
3054;SDS011;1537;52.018;8.542;2023-07-09T10:52:40;10.50;;;7.50;;
3054;SDS011;1537;52.018;8.542;2023-07-09T10:56:10;13.23;;;8.17;;
3054;SDS011;1537;52.018;8.542;2023-07-09T10:59:37;10.83;;;8.60;;
3054;SDS011;1537;52.018;8.542;2023-07-09T11:03:04;10.93;;;8.43;;
3054;SDS011;1537;52.018;8.542;2023-07-09T11:06:41;10.37;;;8.10;;
3054;SDS011;1537;52.018;8.542;2023-07-09T11:10:11;10.80;;;7.80;;
3054;SDS011;1537;52.018;8.542;2023-07-09T11:13:43;12.60;;;8.63;;
3054;SDS011;1537;52.018;8.542;2023-07-09T11:17:15;9.00;;;7.57;;
3054;SDS011;1537;52.018;8.542;2023-07-09T11:20:42;12.77;;;8.97;;
3054;SDS011;1537;52.018;8.542;2023-07-09T11:28:02;8.77;;;6.93;;
3054;SDS011;1537;52.018;8.542;2023-07-09T11:31:31;9.60;;;7.60;;
3054;SDS011;1537;52.018;8.542;2023-07-09T11:35:08;10.60;;;8.30;;
3054;SDS011;1537;52.018;8.542;2023-07-09T11:38:38;10.30;;;8.00;;
3054;SDS011;1537;52.018;8.542;2023-07-09T11:45:55;9.40;;;7.80;;
3054;SDS011;1537;52.018;8.542;2023-07-09T11:49:27;9.73;;;7.33;;
3054;SDS011;1537;52.018;8.542;2023-07-09T11:52:56;8.77;;;7.03;;
3054;SDS011;1537;52.018;8.542;2023-07-09T11:56:22;15.97;;;8.00;;
3054;SDS011;1537;52.018;8.542;2023-07-09T11:59:47;14.37;;;8.30;;
3054;SDS011;1537;52.018;8.542;2023-07-09T12:03:14;13.03;;;8.33;;
3054;SDS011;1537;52.018;8.542;2023-07-09T12:06:40;10.90;;;8.20;;
3054;SDS011;1537;52.018;8.542;2023-07-09T12:10:11;12.60;;;8.40;;
3054;SDS011;1537;52.018;8.542;2023-07-09T12:13:43;12.73;;;8.20;;
3054;SDS011;1537;52.018;8.542;2023-07-09T12:17:07;11.33;;;7.80;;
3054;SDS011;1537;52.018;8.542;2023-07-09T12:20:35;10.87;;;8.00;;
3054;SDS011;1537;52.018;8.542;2023-07-09T12:24:00;10.20;;;8.37;;
3054;SDS011;1537;52.018;8.542;2023-07-09T12:27:26;13.90;;;8.20;;
3054;SDS011;1537;52.018;8.542;2023-07-09T12:30:51;11.17;;;7.83;;
3054;SDS011;1537;52.018;8.542;2023-07-09T12:34:16;11.40;;;8.23;;
3054;SDS011;1537;52.018;8.542;2023-07-09T12:37:41;11.70;;;7.93;;
3054;SDS011;1537;52.018;8.542;2023-07-09T12:41:06;9.50;;;7.80;;
3054;SDS011;1537;52.018;8.542;2023-07-09T12:44:41;8.97;;;7.40;;
3054;SDS011;1537;52.018;8.542;2023-07-09T12:48:05;11.90;;;7.93;;
3054;SDS011;1537;52.018;8.542;2023-07-09T12:51:32;12.37;;;7.73;;
3054;SDS011;1537;52.018;8.542;2023-07-09T12:54:58;10.90;;;7.00;;
3054;SDS011;1537;52.018;8.542;2023-07-09T12:58:25;8.90;;;6.83;;
3054;SDS011;1537;52.018;8.542;2023-07-09T13:01:54;10.30;;;7.13;;
3054;SDS011;1537;52.018;8.542;2023-07-09T13:05:20;12.10;;;6.97;;
3054;SDS011;1537;52.018;8.542;2023-07-09T13:08:45;12.60;;;6.73;;
3054;SDS011;1537;52.018;8.542;2023-07-09T13:12:11;11.43;;;6.73;;
3054;SDS011;1537;52.018;8.542;2023-07-09T13:15:38;9.90;;;6.70;;
3054;SDS011;1537;52.018;8.542;2023-07-09T13:19:04;8.80;;;6.03;;
3054;SDS011;1537;52.018;8.542;2023-07-09T13:22:28;9.00;;;6.60;;
3054;SDS011;1537;52.018;8.542;2023-07-09T13:25:52;13.60;;;6.80;;
3054;SDS011;1537;52.018;8.542;2023-07-09T13:29:19;10.70;;;6.07;;
3054;SDS011;1537;52.018;8.542;2023-07-09T13:32:44;9.10;;;6.07;;
3054;SDS011;1537;52.018;8.542;2023-07-09T13:36:08;13.10;;;5.77;;
3054;SDS011;1537;52.018;8.542;2023-07-09T13:39:33;8.90;;;5.80;;
3054;SDS011;1537;52.018;8.542;2023-07-09T13:42:56;11.63;;;6.93;;
3054;SDS011;1537;52.018;8.542;2023-07-09T13:46:22;11.90;;;6.60;;
3054;SDS011;1537;52.018;8.542;2023-07-09T13:49:47;12.07;;;7.10;;
3054;SDS011;1537;52.018;8.542;2023-07-09T13:53:16;9.20;;;7.23;;
3054;SDS011;1537;52.018;8.542;2023-07-09T13:56:41;10.70;;;6.90;;
3054;SDS011;1537;52.018;8.542;2023-07-09T14:00:05;11.93;;;6.97;;
3054;SDS011;1537;52.018;8.542;2023-07-09T14:03:32;12.40;;;6.70;;
3054;SDS011;1537;52.018;8.542;2023-07-09T14:06:57;8.77;;;6.30;;
3054;SDS011;1537;52.018;8.542;2023-07-09T14:10:21;10.37;;;7.00;;
3054;SDS011;1537;52.018;8.542;2023-07-09T14:13:45;9.57;;;7.20;;
3054;SDS011;1537;52.018;8.542;2023-07-09T14:17:08;12.43;;;6.57;;
3054;SDS011;1537;52.018;8.542;2023-07-09T14:20:33;11.73;;;6.73;;
3054;SDS011;1537;52.018;8.542;2023-07-09T14:23:57;11.67;;;7.10;;
3054;SDS011;1537;52.018;8.542;2023-07-09T14:27:22;12.50;;;7.40;;
3054;SDS011;1537;52.018;8.542;2023-07-09T14:30:45;10.67;;;6.87;;
3054;SDS011;1537;52.018;8.542;2023-07-09T14:34:16;16.20;;;7.43;;
3054;SDS011;1537;52.018;8.542;2023-07-09T14:37:44;19.93;;;7.60;;
3054;SDS011;1537;52.018;8.542;2023-07-09T14:41:16;14.03;;;7.80;;
3054;SDS011;1537;52.018;8.542;2023-07-09T14:44:43;8.57;;;6.63;;
3054;SDS011;1537;52.018;8.542;2023-07-09T14:48:08;11.07;;;7.30;;
3054;SDS011;1537;52.018;8.542;2023-07-09T14:51:33;11.27;;;7.40;;
3054;SDS011;1537;52.018;8.542;2023-07-09T14:54:59;9.20;;;7.50;;
3054;SDS011;1537;52.018;8.542;2023-07-09T14:58:23;10.70;;;7.07;;
3054;SDS011;1537;52.018;8.542;2023-07-09T15:01:47;14.43;;;6.87;;
3054;SDS011;1537;52.018;8.542;2023-07-09T15:05:12;9.17;;;7.00;;
3054;SDS011;1537;52.018;8.542;2023-07-09T15:08:37;15.10;;;7.47;;
3054;SDS011;1537;52.018;8.542;2023-07-09T15:12:03;8.37;;;6.53;;
3054;SDS011;1537;52.018;8.542;2023-07-09T15:15:27;10.97;;;7.40;;
3054;SDS011;1537;52.018;8.542;2023-07-09T15:18:53;10.10;;;7.37;;
3054;SDS011;1537;52.018;8.542;2023-07-09T15:22:23;10.20;;;7.10;;
3054;SDS011;1537;52.018;8.542;2023-07-09T15:25:52;12.90;;;7.50;;
3054;SDS011;1537;52.018;8.542;2023-07-09T15:29:17;13.83;;;8.27;;
3054;SDS011;1537;52.018;8.542;2023-07-09T15:32:42;10.87;;;7.10;;
3054;SDS011;1537;52.018;8.542;2023-07-09T15:36:08;9.30;;;6.80;;
3054;SDS011;1537;52.018;8.542;2023-07-09T15:39:34;9.53;;;7.33;;
3054;SDS011;1537;52.018;8.542;2023-07-09T15:42:58;10.50;;;7.17;;
3054;SDS011;1537;52.018;8.542;2023-07-09T15:46:28;12.47;;;8.67;;
3054;SDS011;1537;52.018;8.542;2023-07-09T15:49:52;10.40;;;7.10;;
3054;SDS011;1537;52.018;8.542;2023-07-09T15:53:16;14.20;;;7.87;;
3054;SDS011;1537;52.018;8.542;2023-07-09T15:56:43;13.50;;;8.27;;
3054;SDS011;1537;52.018;8.542;2023-07-09T16:00:18;11.73;;;7.40;;
3054;SDS011;1537;52.018;8.542;2023-07-09T16:03:46;12.03;;;7.57;;
3054;SDS011;1537;52.018;8.542;2023-07-09T16:07:11;11.80;;;7.67;;
3054;SDS011;1537;52.018;8.542;2023-07-09T16:10:36;9.53;;;7.50;;
3054;SDS011;1537;52.018;8.542;2023-07-09T16:14:00;11.83;;;8.57;;
3054;SDS011;1537;52.018;8.542;2023-07-09T16:17:24;13.37;;;8.87;;
3054;SDS011;1537;52.018;8.542;2023-07-09T16:20:49;10.40;;;7.70;;
3054;SDS011;1537;52.018;8.542;2023-07-09T16:24:14;12.90;;;8.50;;
3054;SDS011;1537;52.018;8.542;2023-07-09T16:27:41;12.97;;;9.47;;
3054;SDS011;1537;52.018;8.542;2023-07-09T16:31:05;13.50;;;8.87;;
3054;SDS011;1537;52.018;8.542;2023-07-09T16:34:29;15.87;;;8.50;;
3054;SDS011;1537;52.018;8.542;2023-07-09T16:37:54;14.77;;;9.00;;
3054;SDS011;1537;52.018;8.542;2023-07-09T16:41:19;10.57;;;8.23;;
3054;SDS011;1537;52.018;8.542;2023-07-09T16:44:43;13.83;;;9.40;;
3054;SDS011;1537;52.018;8.542;2023-07-09T16:48:08;11.13;;;8.40;;
3054;SDS011;1537;52.018;8.542;2023-07-09T16:51:37;13.30;;;9.40;;
3054;SDS011;1537;52.018;8.542;2023-07-09T16:55:02;12.40;;;9.83;;
3054;SDS011;1537;52.018;8.542;2023-07-09T16:58:29;15.53;;;10.60;;
3054;SDS011;1537;52.018;8.542;2023-07-09T17:01:54;13.53;;;8.53;;
3054;SDS011;1537;52.018;8.542;2023-07-09T17:05:18;14.40;;;8.93;;
3054;SDS011;1537;52.018;8.542;2023-07-09T17:08:43;12.33;;;7.33;;
3054;SDS011;1537;52.018;8.542;2023-07-09T17:12:10;10.47;;;7.07;;
3054;SDS011;1537;52.018;8.542;2023-07-09T17:15:37;10.70;;;7.17;;
3054;SDS011;1537;52.018;8.542;2023-07-09T17:19:07;14.40;;;7.50;;
3054;SDS011;1537;52.018;8.542;2023-07-09T17:22:34;14.00;;;8.10;;
3054;SDS011;1537;52.018;8.542;2023-07-09T17:26:01;16.10;;;8.23;;
3054;SDS011;1537;52.018;8.542;2023-07-09T17:29:29;11.67;;;8.00;;
3054;SDS011;1537;52.018;8.542;2023-07-09T17:32:54;11.30;;;7.43;;
3054;SDS011;1537;52.018;8.542;2023-07-09T17:36:19;14.03;;;7.90;;
3054;SDS011;1537;52.018;8.542;2023-07-09T17:39:46;12.20;;;7.40;;
3054;SDS011;1537;52.018;8.542;2023-07-09T17:43:11;10.90;;;7.10;;
3054;SDS011;1537;52.018;8.542;2023-07-09T17:46:39;11.97;;;6.60;;
3054;SDS011;1537;52.018;8.542;2023-07-09T17:50:04;13.33;;;7.10;;
3054;SDS011;1537;52.018;8.542;2023-07-09T17:53:34;10.90;;;7.07;;
3054;SDS011;1537;52.018;8.542;2023-07-09T17:56:59;12.13;;;7.60;;
3054;SDS011;1537;52.018;8.542;2023-07-09T18:00:23;10.83;;;7.07;;
3054;SDS011;1537;52.018;8.542;2023-07-09T18:03:52;10.57;;;6.90;;
3054;SDS011;1537;52.018;8.542;2023-07-09T18:07:21;8.20;;;6.17;;
3054;SDS011;1537;52.018;8.542;2023-07-09T18:10:47;9.80;;;6.70;;
3054;SDS011;1537;52.018;8.542;2023-07-09T18:14:16;11.50;;;7.10;;
3054;SDS011;1537;52.018;8.542;2023-07-09T18:17:43;9.87;;;6.20;;
3054;SDS011;1537;52.018;8.542;2023-07-09T18:21:09;9.23;;;6.73;;
3054;SDS011;1537;52.018;8.542;2023-07-09T18:24:40;11.03;;;6.10;;
3054;SDS011;1537;52.018;8.542;2023-07-09T18:28:05;12.17;;;6.40;;
3054;SDS011;1537;52.018;8.542;2023-07-09T18:31:30;8.17;;;4.60;;
3054;SDS011;1537;52.018;8.542;2023-07-09T18:34:57;7.93;;;5.07;;
3054;SDS011;1537;52.018;8.542;2023-07-09T18:38:24;8.97;;;5.40;;
3054;SDS011;1537;52.018;8.542;2023-07-09T18:41:48;9.63;;;5.70;;
3054;SDS011;1537;52.018;8.542;2023-07-09T18:45:15;6.67;;;5.40;;
3054;SDS011;1537;52.018;8.542;2023-07-09T18:48:40;10.73;;;5.40;;
3054;SDS011;1537;52.018;8.542;2023-07-09T18:52:08;11.37;;;5.90;;
3054;SDS011;1537;52.018;8.542;2023-07-09T18:55:35;9.37;;;6.43;;
3054;SDS011;1537;52.018;8.542;2023-07-09T18:58:59;8.77;;;5.50;;
3054;SDS011;1537;52.018;8.542;2023-07-09T19:02:23;8.93;;;5.93;;
3054;SDS011;1537;52.018;8.542;2023-07-09T19:05:47;10.90;;;6.10;;
3054;SDS011;1537;52.018;8.542;2023-07-09T19:09:13;9.77;;;5.60;;
3054;SDS011;1537;52.018;8.542;2023-07-09T19:12:41;8.93;;;7.00;;
3054;SDS011;1537;52.018;8.542;2023-07-09T19:16:15;10.67;;;6.37;;
3054;SDS011;1537;52.018;8.542;2023-07-09T19:19:46;9.30;;;5.80;;
3054;SDS011;1537;52.018;8.542;2023-07-09T19:23:13;9.10;;;6.00;;
3054;SDS011;1537;52.018;8.542;2023-07-09T19:26:40;12.20;;;5.83;;
3054;SDS011;1537;52.018;8.542;2023-07-09T19:30:06;10.40;;;6.50;;
3054;SDS011;1537;52.018;8.542;2023-07-09T19:33:33;11.17;;;6.67;;
3054;SDS011;1537;52.018;8.542;2023-07-09T19:36:59;15.60;;;6.20;;
3054;SDS011;1537;52.018;8.542;2023-07-09T19:40:26;9.57;;;5.67;;
3054;SDS011;1537;52.018;8.542;2023-07-09T19:43:50;10.57;;;7.83;;
3054;SDS011;1537;52.018;8.542;2023-07-09T19:47:17;8.77;;;5.57;;
3054;SDS011;1537;52.018;8.542;2023-07-09T19:50:43;7.10;;;5.50;;
3054;SDS011;1537;52.018;8.542;2023-07-09T19:54:10;10.87;;;5.67;;
3054;SDS011;1537;52.018;8.542;2023-07-09T19:57:35;9.70;;;5.87;;
3054;SDS011;1537;52.018;8.542;2023-07-09T20:00:59;10.13;;;5.40;;
3054;SDS011;1537;52.018;8.542;2023-07-09T20:04:24;8.90;;;5.47;;
3054;SDS011;1537;52.018;8.542;2023-07-09T20:07:49;11.23;;;5.57;;
3054;SDS011;1537;52.018;8.542;2023-07-09T20:11:15;9.77;;;5.53;;
3054;SDS011;1537;52.018;8.542;2023-07-09T20:14:39;10.77;;;6.13;;
3054;SDS011;1537;52.018;8.542;2023-07-09T20:18:05;8.73;;;5.70;;
3054;SDS011;1537;52.018;8.542;2023-07-09T20:21:36;10.13;;;6.73;;
3054;SDS011;1537;52.018;8.542;2023-07-09T20:25:01;12.27;;;7.20;;
3054;SDS011;1537;52.018;8.542;2023-07-09T20:28:26;9.27;;;6.57;;
3054;SDS011;1537;52.018;8.542;2023-07-09T20:31:51;12.50;;;6.90;;
3054;SDS011;1537;52.018;8.542;2023-07-09T20:35:16;11.20;;;6.40;;
3054;SDS011;1537;52.018;8.542;2023-07-09T20:38:43;11.90;;;7.67;;
3054;SDS011;1537;52.018;8.542;2023-07-09T20:42:08;10.40;;;6.90;;
3054;SDS011;1537;52.018;8.542;2023-07-09T20:45:33;8.40;;;5.77;;
3054;SDS011;1537;52.018;8.542;2023-07-09T20:48:57;8.30;;;5.93;;
3054;SDS011;1537;52.018;8.542;2023-07-09T20:52:21;9.23;;;6.67;;
3054;SDS011;1537;52.018;8.542;2023-07-09T20:55:51;9.40;;;6.07;;
3054;SDS011;1537;52.018;8.542;2023-07-09T20:59:16;11.40;;;6.03;;
3054;SDS011;1537;52.018;8.542;2023-07-09T21:02:42;9.07;;;6.27;;
3054;SDS011;1537;52.018;8.542;2023-07-09T21:06:08;9.40;;;6.20;;
3054;SDS011;1537;52.018;8.542;2023-07-09T21:09:45;8.70;;;6.53;;
3054;SDS011;1537;52.018;8.542;2023-07-09T21:13:11;11.47;;;7.40;;
3054;SDS011;1537;52.018;8.542;2023-07-09T21:16:37;12.27;;;7.70;;